| time (UTC) | temp F | wind direction | speed knots | gust knots | rain 1hr in | rain 24hr in | rain mn in | humidity % | barometer mb |
| 20260506194549 | 77 | 338 | 2.6 | 9.6 | 0.00 | 0.00 | 0.00 | 29 | 1014.2 |
| 20260506193042 | 76 | 205 | 0.0 | 3.5 | 0.00 | 0.00 | 0.00 | 31 | 1014.5 |
| 20260506191530 | 76 | 267 | 2.6 | 9.6 | 0.00 | 0.00 | 0.00 | 31 | 1014.8 |
| 20260506190027 | 74 | 326 | 0.9 | 3.5 | 0.00 | 0.00 | 0.00 | 31 | 1014.9 |
| 20260506184523 | 73 | 327 | 1.7 | 8.7 | 0.00 | 0.00 | 0.00 | 34 | 1015.2 |
| 20260506183021 | 73 | 51 | 1.7 | 7.8 | 0.00 | 0.00 | 0.00 | 30 | 1015.4 |
| 20260506181520 | 72 | 250 | 0.9 | 4.3 | 0.00 | 0.00 | 0.00 | 34 | 1015.5 |
| 20260506180019 | 71 | 237 | 0.9 | 3.5 | 0.00 | 0.00 | 0.00 | 36 | 1015.6 |
| 20260506174515 | 71 | 288 | 0.9 | 4.3 | 0.00 | 0.00 | 0.00 | 37 | 1015.7 |
| 20260506173015 | 70 | 142 | 0.0 | 2.6 | 0.00 | 0.00 | 0.00 | 37 | 1015.8 |
| 20260506171553 | 68 | 219 | 0.0 | 2.6 | 0.00 | 0.00 | 0.00 | 36 | 1016.0 |
| 20260506170049 | 67 | 265 | 0.9 | 4.3 | 0.00 | 0.00 | 0.00 | 36 | 1016.1 |
| 20260506164537 | 66 | 15 | 1.7 | 4.3 | 0.00 | 0.00 | 0.00 | 39 | 1016.2 |
| 20260506163028 | 65 | 337 | 0.9 | 4.3 | 0.00 | 0.00 | 0.00 | 40 | 1016.3 |
| 20260506161527 | 64 | 360 | 0.0 | 1.7 | 0.00 | 0.00 | 0.00 | 41 | 1016.4 |
| 20260506160021 | 61 | 19 | 0.0 | 1.7 | 0.00 | 0.00 | 0.00 | 44 | 1016.5 |
| 20260506154519 | 58 | 68 | 0.0 | 1.7 | 0.00 | 0.00 | 0.00 | 50 | 1016.5 |
| 20260506153012 | 56 | 70 | 0.0 | 1.7 | 0.00 | 0.00 | 0.00 | 53 | 1016.4 |
| 20260506151509 | 54 | 61 | 0.0 | 1.7 | 0.00 | 0.00 | 0.00 | 58 | 1016.6 |
| 20260506150005 | 53 | 59 | 0.0 | 1.7 | 0.00 | 0.00 | 0.00 | 61 | 1016.6 |
| 20260506144546 | 52 | 12 | 0.0 | 0.9 | 0.00 | 0.00 | 0.00 | 61 | 1016.5 |
| 20260506143044 | 51 | 360 | 0.9 | 1.7 | 0.00 | 0.00 | 0.00 | 61 | 1016.3 |
| 20260506141602 | 50 | 5 | 0.9 | 3.5 | 0.00 | 0.01 | 0.00 | 63 | 1016.1 |
| 20260506140041 | 47 | 338 | 0.0 | 1.7 | 0.00 | 0.01 | 0.00 | 68 | 1015.9 |
| 20260506134540 | 46 | 5 | 0.0 | 2.6 | 0.00 | 0.01 | 0.00 | 72 | 1015.8 |
| 20260506133037 | 44 | 325 | 0.0 | 2.6 | 0.00 | 0.01 | 0.00 | 73 | 1015.5 |
| 20260506131539 | 43 | 355 | 0.0 | 1.7 | 0.00 | 0.02 | 0.00 | 73 | 1015.4 |
| 20260506130034 | 43 | 296 | 0.0 | 1.7 | 0.00 | 0.02 | 0.00 | 73 | 1015.0 |
| 20260506124537 | 42 | 288 | 0.0 | 1.7 | 0.00 | 0.02 | 0.00 | 72 | 1014.9 |
| 20260506123021 | 43 | 277 | 0.0 | 1.7 | 0.00 | 0.02 | 0.00 | 70 | 1014.6 |
| 20260506121516 | 44 | 276 | 0.0 | 0.9 | 0.00 | 0.02 | 0.00 | 69 | 1014.6 |
| 20260506120011 | 44 | 276 | 0.0 | 0.9 | 0.00 | 0.02 | 0.00 | 68 | 1014.4 |
| 20260506114510 | 46 | 192 | 0.0 | 0.0 | 0.00 | 0.02 | 0.00 | 66 | 1014.3 |
| 20260506113008 | 46 | 192 | 0.0 | 0.9 | 0.00 | 0.02 | 0.00 | 67 | 1014.2 |
| 20260506111503 | 46 | 192 | 0.0 | 0.9 | 0.00 | 0.02 | 0.00 | 66 | 1014.2 |
| 20260506110002 | 46 | 220 | 0.0 | 1.7 | 0.00 | 0.02 | 0.00 | 65 | 1013.9 |
| 20260506104602 | 46 | 213 | 0.0 | 1.7 | 0.00 | 0.02 | 0.00 | 66 | 1013.8 |
| 20260506103042 | 48 | 149 | 0.0 | 0.9 | 0.00 | 0.02 | 0.00 | 65 | 1013.6 |
| 20260506101540 | 48 | 65 | 0.0 | 0.9 | 0.00 | 0.02 | 0.00 | 65 | 1013.6 |
| 20260506100023 | 49 | 94 | 0.0 | 1.7 | 0.00 | 0.02 | 0.00 | 63 | 1013.4 |
| 20260506094530 | 49 | 140 | 0.0 | 1.7 | 0.00 | 0.02 | 0.00 | 62 | 1013.3 |
| 20260506093008 | 49 | 220 | 0.0 | 1.7 | 0.00 | 0.02 | 0.00 | 63 | 1013.2 |
| 20260506091507 | 49 | 222 | 0.0 | 2.6 | 0.00 | 0.02 | 0.00 | 62 | 1013.4 |
| 20260506090006 | 49 | 268 | 0.0 | 1.7 | 0.00 | 0.02 | 0.00 | 62 | 1013.4 |
| 20260506084505 | 48 | 268 | 0.0 | 3.5 | 0.00 | 0.02 | 0.00 | 63 | 1013.2 |
| 20260506083004 | 47 | 234 | 0.0 | 1.7 | 0.00 | 0.02 | 0.00 | 65 | 1013.3 |
| 20260506081504 | 47 | 244 | 0.0 | 2.6 | 0.00 | 0.02 | 0.00 | 67 | 1013.1 |
| 20260506080110 | 47 | 273 | 0.0 | 1.7 | 0.00 | 0.02 | 0.00 | 68 | 1013.3 |
| 20260506073039 | 47 | 213 | 0.0 | 0.9 | 0.00 | 0.02 | 0.00 | 67 | 1013.2 |
| 20260506071546 | 47 | 225 | 0.0 | 0.0 | 0.00 | 0.02 | 0.00 | 65 | 1013.0 |
| 20260506061513 | 50 | 347 | 0.0 | 1.7 | 0.00 | 0.06 | 0.00 | 59 | 1012.5 |
| 20260506044552 | 51 | 251 | 0.0 | 0.9 | 0.00 | 0.06 | 0.00 | 57 | 1011.7 |
| 20260506043020 | 53 | 330 | 0.0 | 1.7 | 0.00 | 0.06 | 0.00 | 54 | 1011.4 |
| 20260506041518 | 53 | 270 | 0.0 | 0.9 | 0.00 | 0.06 | 0.06 | 54 | 1011.2 |
| 20260506040006 | 54 | 288 | 0.0 | 2.6 | 0.00 | 0.06 | 0.06 | 53 | 1011.0 |
| 20260506034506 | 55 | 258 | 0.0 | 0.9 | 0.00 | 0.06 | 0.06 | 53 | 1010.7 |
| 20260506033006 | 56 | 257 | 0.0 | 1.7 | 0.00 | 0.06 | 0.06 | 51 | 1010.5 |
| 20260506031512 | 58 | 335 | 0.0 | 1.7 | 0.00 | 0.06 | 0.06 | 48 | 1010.1 |
| 20260506030007 | 59 | 5 | 0.0 | 2.6 | 0.00 | 0.06 | 0.06 | 46 | 1009.8 |
| 20260506024505 | 59 | 307 | 0.0 | 7.0 | 0.00 | 0.06 | 0.06 | 44 | 1009.7 |
| 20260506023004 | 61 | 348 | 0.9 | 6.1 | 0.00 | 0.06 | 0.06 | 40 | 1009.4 |
| 20260506021503 | 63 | 16 | 2.6 | 8.7 | 0.00 | 0.06 | 0.06 | 40 | 1009.2 |
| 20260506020051 | 65 | 317 | 1.7 | 10.4 | 0.00 | 0.06 | 0.06 | 35 | 1009.1 |
| 20260506014558 | 66 | 349 | 5.2 | 13.0 | 0.00 | 0.06 | 0.06 | 34 | 1008.8 |
| 20260506013051 | 67 | 11 | 5.2 | 13.9 | 0.00 | 0.06 | 0.06 | 34 | 1008.5 |
| 20260506011556 | 68 | 308 | 3.5 | 13.0 | 0.00 | 0.06 | 0.06 | 33 | 1008.2 |
| 20260506010054 | 70 | 309 | 3.5 | 8.7 | 0.00 | 0.06 | 0.06 | 31 | 1008.3 |
| 20260506004621 | 68 | 198 | 0.9 | 6.1 | 0.00 | 0.06 | 0.06 | 28 | 1008.1 |
| 20260506003045 | 68 | 286 | 0.0 | 4.3 | 0.00 | 0.06 | 0.06 | 29 | 1008.1 |
| 20260506001544 | 68 | 29 | 1.7 | 4.3 | 0.00 | 0.06 | 0.06 | 32 | 1008.0 |
| 20260506000033 | 68 | 85 | 1.7 | 5.2 | 0.00 | 0.06 | 0.06 | 33 | 1008.1 |
| 20260505234601 | 68 | 5 | 0.0 | 3.5 | 0.00 | 0.06 | 0.06 | 33 | 1008.1 |
| 20260505233028 | 67 | 248 | 0.0 | 6.1 | 0.00 | 0.06 | 0.06 | 35 | 1008.2 |
| 20260505231526 | 67 | 269 | 0.9 | 8.7 | 0.00 | 0.06 | 0.06 | 35 | 1008.3 |
| 20260505230024 | 66 | 316 | 0.9 | 4.3 | 0.00 | 0.06 | 0.06 | 38 | 1008.5 |
| 20260505224528 | 66 | 311 | 3.5 | 8.7 | 0.00 | 0.06 | 0.06 | 37 | 1008.8 |
| 20260505223016 | 65 | 5 | 2.6 | 7.8 | 0.00 | 0.06 | 0.06 | 39 | 1009.1 |
| 20260505221513 | 65 | 317 | 3.5 | 7.0 | 0.00 | 0.06 | 0.06 | 43 | 1009.2 |
| 20260505220143 | 65 | 97 | 2.6 | 6.1 | 0.00 | 0.06 | 0.06 | 40 | 1009.4 |
| 20260505214617 | 64 | 306 | 0.9 | 3.5 | 0.00 | 0.06 | 0.06 | 46 | 1009.7 |
| 20260505213057 | 64 | 5 | 0.9 | 4.3 | 0.00 | 0.06 | 0.06 | 41 | 1009.9 |
| 20260505211612 | 64 | 243 | 2.6 | 6.1 | 0.00 | 0.06 | 0.06 | 46 | 1010.2 |
| 20260505210053 | 63 | 59 | 1.7 | 6.1 | 0.00 | 0.06 | 0.06 | 44 | 1010.4 |
| 20260505204550 | 62 | 360 | 1.7 | 4.3 | 0.00 | 0.06 | 0.06 | 47 | 1010.6 |
| 20260505203049 | 61 | 44 | 0.9 | 3.5 | 0.00 | 0.06 | 0.06 | 48 | 1010.7 |
| 20260505201543 | 60 | 281 | 0.9 | 5.2 | 0.00 | 0.06 | 0.06 | 50 | 1010.8 |
| 20260505200034 | 58 | 101 | 0.0 | 3.5 | 0.00 | 0.06 | 0.06 | 56 | 1011.2 |